This is the latest recevied weather packets stored in our database for station/object W4SMH. If no packets are shown the sender has not sent any weather packets the latest 10 day(s).
| Time | Temp. | Humidity | Pressure | Rain* | Wind** | Luminosity | Snow |
|---|---|---|---|---|---|---|---|
| 1777424634 | 15.56° C | 63% | 1010.6 hPa | 0 mm | - | 0 W/m² | - |
| 1777422958 | 14.44° C | 73% | 1016.1 hPa | 0 mm | - | 642 W/m² | - |
| 1777422939 | 13.89° C | 74% | 1016.4 hPa | 0 mm | - | 888 W/m² | - |
| 1777422912 | 13.89° C | 74% | 1016.4 hPa | 0 mm | - | 893 W/m² | - |
| 1777422296 | 16.11° C | 56% | 1010.9 hPa | 0 mm | - | 16 W/m² | - |
| 1777422270 | 16.11° C | 56% | 1010.8 hPa | 0 mm | - | 18 W/m² | - |
| 1777422047 | 14.44° C | 74% | 1016.6 hPa | 0 mm | - | 898 W/m² | - |
| 1777421962 | 16.67° C | 57% | 1010.9 hPa | 0 mm | - | 19 W/m² | - |
| 1777421506 | 16.67° C | 57% | 1010.9 hPa | 0 mm | - | 28 W/m² | - |
| 1777421478 | 16.67° C | 56% | 1010.9 hPa | 0 mm | - | 30 W/m² | - |
| 1777421418 | 16.67° C | 56% | 1010.7 hPa | 0 mm | - | 37 W/m² | - |
| 1777420861 | 17.22° C | 55% | 1010.8 hPa | 0 mm | - | 51 W/m² | - |
| 1777419886 | 17.78° C | 53% | 1010.7 hPa | 0 mm | - | 151 W/m² | - |
| 1777419017 | 18.33° C | 52% | 1010.4 hPa | 0 mm | - | 195 W/m² | - |
| 1777417612 | 18.33° C | 56% | 1010.3 hPa | 0 mm | - | 308 W/m² | - |
| 1777417329 | 18.33° C | 54% | 1010.3 hPa | 0 mm | - | 318 W/m² | - |
| 1777417112 | 17.78° C | 53% | 1010.4 hPa | 0 mm | - | 381 W/m² | - |
| 1777416831 | 17.78° C | 55% | 1010.4 hPa | 0 mm | - | 250 W/m² | - |
| 1777416541 | 17.78° C | 56% | 1010.4 hPa | 0 mm | - | 304 W/m² | - |
| 1777416290 | 18.33° C | 55% | 1010.7 hPa | 0 mm | - | 211 W/m² | - |
| 1777415550 | 17.78° C | 55% | 1010.7 hPa | 0 mm | - | 473 W/m² | - |
| 1777414821 | 14.44° C | 74% | 1016.8 hPa | 0 mm | - | 916 W/m² | - |
| 1777414187 | 17.22° C | 55% | 1010.8 hPa | 0 mm | - | 287 W/m² | - |
| 1777413983 | 17.22° C | 56% | 1010.9 hPa | 0 mm | - | 346 W/m² | - |
| 1777413283 | 17.78° C | 54% | 1010.7 hPa | 0 mm | - | 209 W/m² | - |
* Rain latest hour (hover to see other rain measurements)
** Current wind speed in m/s (hover to see current wind gust speed)